sensor_id;sensor_type;location;lat;lon;timestamp;pressure;altitude;pressure_sealevel;temperature;humidity
57827;BME280;43656;57.746;11.780;2022-07-29T00:01:48;102016.81;;;13.79;100.00
57827;BME280;43656;57.746;11.780;2022-07-29T00:04:14;102012.16;;;13.73;100.00
57827;BME280;43656;57.746;11.780;2022-07-29T00:06:40;102022.97;;;13.73;100.00
57827;BME280;43656;57.746;11.780;2022-07-29T00:09:05;101996.88;;;13.50;100.00
57827;BME280;43656;57.746;11.780;2022-07-29T00:11:31;102000.91;;;13.54;100.00
57827;BME280;43656;57.746;11.780;2022-07-29T00:13:56;101992.53;;;13.49;100.00
57827;BME280;43656;57.746;11.780;2022-07-29T00:16:22;102021.31;;;13.72;100.00
57827;BME280;43656;57.746;11.780;2022-07-29T00:18:48;102019.16;;;13.67;100.00
57827;BME280;43656;57.746;11.780;2022-07-29T00:21:13;102014.84;;;13.73;100.00
57827;BME280;43656;57.746;11.780;2022-07-29T00:23:39;102011.69;;;13.69;100.00
57827;BME280;43656;57.746;11.780;2022-07-29T00:26:04;102019.06;;;13.75;100.00
57827;BME280;43656;57.746;11.780;2022-07-29T00:28:30;102021.75;;;13.75;100.00
57827;BME280;43656;57.746;11.780;2022-07-29T00:30:55;102012.53;;;13.70;100.00
57827;BME280;43656;57.746;11.780;2022-07-29T00:33:20;102014.59;;;13.68;100.00
57827;BME280;43656;57.746;11.780;2022-07-29T00:35:47;102022.06;;;13.66;100.00
57827;BME280;43656;57.746;11.780;2022-07-29T00:38:17;102018.69;;;13.63;100.00
57827;BME280;43656;57.746;11.780;2022-07-29T00:40:44;102021.97;;;13.59;100.00
57827;BME280;43656;57.746;11.780;2022-07-29T00:43:11;102019.84;;;13.54;100.00
57827;BME280;43656;57.746;11.780;2022-07-29T00:45:37;102023.09;;;13.50;100.00
57827;BME280;43656;57.746;11.780;2022-07-29T00:48:03;102011.06;;;13.37;100.00
57827;BME280;43656;57.746;11.780;2022-07-29T00:50:30;102010.91;;;13.39;100.00
57827;BME280;43656;57.746;11.780;2022-07-29T00:52:56;102025.16;;;13.48;100.00
57827;BME280;43656;57.746;11.780;2022-07-29T00:55:21;102028.03;;;13.46;100.00
57827;BME280;43656;57.746;11.780;2022-07-29T00:57:48;102026.56;;;13.44;100.00
57827;BME280;43656;57.746;11.780;2022-07-29T01:00:23;102030.41;;;13.34;100.00
57827;BME280;43656;57.746;11.780;2022-07-29T01:02:49;102020.44;;;13.35;100.00
57827;BME280;43656;57.746;11.780;2022-07-29T01:05:18;102008.50;;;13.29;100.00
57827;BME280;43656;57.746;11.780;2022-07-29T01:07:45;102016.97;;;13.41;100.00
57827;BME280;43656;57.746;11.780;2022-07-29T01:10:13;102024.47;;;13.60;100.00
57827;BME280;43656;57.746;11.780;2022-07-29T01:12:39;102007.16;;;13.55;100.00
57827;BME280;43656;57.746;11.780;2022-07-29T01:15:07;102028.03;;;13.61;100.00
57827;BME280;43656;57.746;11.780;2022-07-29T01:17:52;102029.16;;;13.52;100.00
57827;BME280;43656;57.746;11.780;2022-07-29T01:23:40;102031.03;;;13.36;100.00
57827;BME280;43656;57.746;11.780;2022-07-29T01:29:21;102018.25;;;13.30;100.00
57827;BME280;43656;57.746;11.780;2022-07-29T01:32:15;102020.59;;;13.19;100.00
57827;BME280;43656;57.746;11.780;2022-07-29T01:34:49;102028.69;;;13.19;100.00
57827;BME280;43656;57.746;11.780;2022-07-29T01:37:23;102032.22;;;13.19;100.00
57827;BME280;43656;57.746;11.780;2022-07-29T01:39:52;102028.41;;;13.13;100.00
57827;BME280;43656;57.746;11.780;2022-07-29T01:45:33;102031.00;;;12.92;100.00
57827;BME280;43656;57.746;11.780;2022-07-29T01:48:06;102020.94;;;12.86;100.00
57827;BME280;43656;57.746;11.780;2022-07-29T01:51:05;102012.44;;;12.74;100.00
57827;BME280;43656;57.746;11.780;2022-07-29T01:53:47;102007.66;;;12.61;100.00
57827;BME280;43656;57.746;11.780;2022-07-29T01:56:16;102017.44;;;12.62;100.00
57827;BME280;43656;57.746;11.780;2022-07-29T01:58:44;102031.69;;;12.71;100.00
57827;BME280;43656;57.746;11.780;2022-07-29T02:01:12;102019.06;;;12.72;100.00
57827;BME280;43656;57.746;11.780;2022-07-29T02:03:39;102026.97;;;12.88;100.00
57827;BME280;43656;57.746;11.780;2022-07-29T02:06:08;102022.44;;;12.88;100.00
57827;BME280;43656;57.746;11.780;2022-07-29T02:08:35;102020.47;;;12.82;100.00
57827;BME280;43656;57.746;11.780;2022-07-29T02:11:03;102024.66;;;12.85;100.00
57827;BME280;43656;57.746;11.780;2022-07-29T02:13:31;102021.88;;;12.78;100.00
57827;BME280;43656;57.746;11.780;2022-07-29T02:16:00;102032.38;;;12.73;100.00
57827;BME280;43656;57.746;11.780;2022-07-29T02:18:28;102016.88;;;12.52;100.00
57827;BME280;43656;57.746;11.780;2022-07-29T02:20:56;102034.53;;;12.55;100.00
57827;BME280;43656;57.746;11.780;2022-07-29T02:23:24;102033.44;;;12.49;100.00
57827;BME280;43656;57.746;11.780;2022-07-29T02:25:53;102031.72;;;12.48;100.00
57827;BME280;43656;57.746;11.780;2022-07-29T02:28:22;102032.41;;;12.50;100.00
57827;BME280;43656;57.746;11.780;2022-07-29T02:30:50;102032.25;;;12.52;100.00
57827;BME280;43656;57.746;11.780;2022-07-29T02:33:18;102028.44;;;12.38;100.00
57827;BME280;43656;57.746;11.780;2022-07-29T02:35:46;102035.81;;;12.44;100.00
57827;BME280;43656;57.746;11.780;2022-07-29T02:38:14;102035.41;;;12.55;100.00
57827;BME280;43656;57.746;11.780;2022-07-29T02:41:01;102041.88;;;12.69;100.00
57827;BME280;43656;57.746;11.780;2022-07-29T02:43:29;102019.69;;;12.74;100.00
57827;BME280;43656;57.746;11.780;2022-07-29T02:45:56;102039.38;;;12.97;100.00
57827;BME280;43656;57.746;11.780;2022-07-29T02:48:29;102033.63;;;13.00;100.00
57827;BME280;43656;57.746;11.780;2022-07-29T02:51:05;102040.63;;;13.09;100.00
57827;BME280;43656;57.746;11.780;2022-07-29T02:53:33;102034.91;;;13.04;100.00
57827;BME280;43656;57.746;11.780;2022-07-29T02:55:59;102032.78;;;13.00;100.00
57827;BME280;43656;57.746;11.780;2022-07-29T02:58:45;102043.38;;;13.01;100.00
57827;BME280;43656;57.746;11.780;2022-07-29T03:01:13;102045.25;;;13.01;100.00
57827;BME280;43656;57.746;11.780;2022-07-29T03:03:42;102021.31;;;12.83;100.00
57827;BME280;43656;57.746;11.780;2022-07-29T03:06:10;102051.88;;;12.98;100.00
57827;BME280;43656;57.746;11.780;2022-07-29T03:08:37;102028.22;;;12.85;100.00
57827;BME280;43656;57.746;11.780;2022-07-29T03:11:03;102053.72;;;12.98;100.00
57827;BME280;43656;57.746;11.780;2022-07-29T03:13:30;102051.69;;;13.00;100.00
57827;BME280;43656;57.746;11.780;2022-07-29T03:15:56;102059.44;;;13.03;100.00
57827;BME280;43656;57.746;11.780;2022-07-29T03:18:23;102058.13;;;12.99;100.00
57827;BME280;43656;57.746;11.780;2022-07-29T03:20:49;102048.06;;;13.07;100.00
57827;BME280;43656;57.746;11.780;2022-07-29T03:23:19;102053.97;;;13.55;100.00
57827;BME280;43656;57.746;11.780;2022-07-29T03:25:44;102057.72;;;13.91;100.00
57827;BME280;43656;57.746;11.780;2022-07-29T03:28:10;102058.28;;;14.22;100.00
57827;BME280;43656;57.746;11.780;2022-07-29T03:30:35;102061.56;;;14.39;100.00
57827;BME280;43656;57.746;11.780;2022-07-29T03:33:00;101980.53;;;13.73;100.00
57827;BME280;43656;57.746;11.780;2022-07-29T03:35:26;102051.63;;;14.03;100.00
57827;BME280;43656;57.746;11.780;2022-07-29T03:37:51;102058.78;;;14.32;100.00
57827;BME280;43656;57.746;11.780;2022-07-29T03:40:23;102049.38;;;14.50;100.00
57827;BME280;43656;57.746;11.780;2022-07-29T03:42:51;102055.13;;;14.19;100.00
57827;BME280;43656;57.746;11.780;2022-07-29T03:45:19;102056.56;;;14.00;100.00
57827;BME280;43656;57.746;11.780;2022-07-29T03:47:51;102057.06;;;13.89;100.00
57827;BME280;43656;57.746;11.780;2022-07-29T03:50:19;102056.34;;;13.80;100.00
57827;BME280;43656;57.746;11.780;2022-07-29T03:52:46;102056.53;;;13.78;100.00
57827;BME280;43656;57.746;11.780;2022-07-29T03:55:12;102057.00;;;13.82;100.00
57827;BME280;43656;57.746;11.780;2022-07-29T03:57:40;102051.38;;;13.83;100.00
57827;BME280;43656;57.746;11.780;2022-07-29T04:00:07;102054.69;;;13.79;100.00
57827;BME280;43656;57.746;11.780;2022-07-29T04:02:33;102043.31;;;13.69;100.00
57827;BME280;43656;57.746;11.780;2022-07-29T04:04:59;102057.16;;;13.95;100.00
57827;BME280;43656;57.746;11.780;2022-07-29T04:07:25;102055.97;;;15.53;100.00
57827;BME280;43656;57.746;11.780;2022-07-29T04:09:50;102044.34;;;16.54;100.00
57827;BME280;43656;57.746;11.780;2022-07-29T04:12:15;102066.66;;;17.42;100.00
57827;BME280;43656;57.746;11.780;2022-07-29T04:14:41;102067.66;;;18.06;100.00
57827;BME280;43656;57.746;11.780;2022-07-29T04:17:06;102043.50;;;18.48;100.00
57827;BME280;43656;57.746;11.780;2022-07-29T04:19:32;102044.56;;;18.97;100.00
57827;BME280;43656;57.746;11.780;2022-07-29T04:21:58;102066.59;;;19.57;100.00
57827;BME280;43656;57.746;11.780;2022-07-29T04:24:24;102063.31;;;19.85;98.27
57827;BME280;43656;57.746;11.780;2022-07-29T04:26:50;102070.13;;;20.25;96.87
57827;BME280;43656;57.746;11.780;2022-07-29T04:29:16;102062.41;;;20.63;95.31
57827;BME280;43656;57.746;11.780;2022-07-29T04:31:42;102062.31;;;20.94;94.20
57827;BME280;43656;57.746;11.780;2022-07-29T04:34:08;102057.31;;;21.26;92.96
57827;BME280;43656;57.746;11.780;2022-07-29T04:36:34;102051.59;;;21.39;92.31
57827;BME280;43656;57.746;11.780;2022-07-29T04:38:59;102066.50;;;21.72;91.12
57827;BME280;43656;57.746;11.780;2022-07-29T04:41:26;102055.06;;;21.75;90.56
57827;BME280;43656;57.746;11.780;2022-07-29T04:43:51;102063.28;;;22.03;89.65
57827;BME280;43656;57.746;11.780;2022-07-29T04:46:16;102069.19;;;22.24;88.61
57827;BME280;43656;57.746;11.780;2022-07-29T04:48:41;102056.41;;;22.30;87.91
57827;BME280;43656;57.746;11.780;2022-07-29T04:51:07;102061.97;;;22.51;87.13
57827;BME280;43656;57.746;11.780;2022-07-29T04:53:34;102074.38;;;22.71;86.43
57827;BME280;43656;57.746;11.780;2022-07-29T04:55:59;102068.03;;;22.87;85.62
57827;BME280;43656;57.746;11.780;2022-07-29T04:58:24;102071.72;;;23.10;84.32
57827;BME280;43656;57.746;11.780;2022-07-29T05:00:50;102067.50;;;23.24;83.69
57827;BME280;43656;57.746;11.780;2022-07-29T05:03:17;102051.03;;;23.24;82.95
57827;BME280;43656;57.746;11.780;2022-07-29T05:05:48;102071.13;;;23.47;82.65
57827;BME280;43656;57.746;11.780;2022-07-29T05:08:13;102072.94;;;23.58;81.65
57827;BME280;43656;57.746;11.780;2022-07-29T05:10:39;102041.19;;;23.45;81.54
57827;BME280;43656;57.746;11.780;2022-07-29T05:13:06;102064.06;;;23.73;80.97
57827;BME280;43656;57.746;11.780;2022-07-29T05:15:33;102070.38;;;23.73;81.17
57827;BME280;43656;57.746;11.780;2022-07-29T05:17:59;102062.84;;;23.85;80.72
57827;BME280;43656;57.746;11.780;2022-07-29T05:20:24;102067.81;;;23.88;80.83
57827;BME280;43656;57.746;11.780;2022-07-29T05:22:54;102065.47;;;23.75;81.59
57827;BME280;43656;57.746;11.780;2022-07-29T05:25:19;102049.78;;;23.54;82.56
57827;BME280;43656;57.746;11.780;2022-07-29T05:27:44;102070.22;;;23.63;82.79
57827;BME280;43656;57.746;11.780;2022-07-29T05:30:10;102075.72;;;22.85;85.75
57827;BME280;43656;57.746;11.780;2022-07-29T05:32:35;102059.53;;;22.21;87.70
57827;BME280;43656;57.746;11.780;2022-07-29T05:35:01;102070.38;;;22.45;87.52
57827;BME280;43656;57.746;11.780;2022-07-29T05:37:26;102072.81;;;22.75;86.50
57827;BME280;43656;57.746;11.780;2022-07-29T05:39:51;102071.06;;;22.69;86.14
57827;BME280;43656;57.746;11.780;2022-07-29T05:42:17;102066.88;;;22.33;88.22
57827;BME280;43656;57.746;11.780;2022-07-29T05:44:42;102068.97;;;21.85;91.80
57827;BME280;43656;57.746;11.780;2022-07-29T05:47:07;102067.03;;;21.33;95.88
57827;BME280;43656;57.746;11.780;2022-07-29T05:49:33;102064.78;;;20.72;99.05
57827;BME280;43656;57.746;11.780;2022-07-29T05:51:59;102063.47;;;20.62;100.00
57827;BME280;43656;57.746;11.780;2022-07-29T05:54:24;102064.91;;;20.65;100.00
57827;BME280;43656;57.746;11.780;2022-07-29T05:56:50;102060.47;;;20.52;100.00
57827;BME280;43656;57.746;11.780;2022-07-29T05:59:16;102065.34;;;20.50;100.00
57827;BME280;43656;57.746;11.780;2022-07-29T06:01:41;102067.09;;;20.45;100.00
57827;BME280;43656;57.746;11.780;2022-07-29T06:04:07;102069.06;;;20.26;100.00
57827;BME280;43656;57.746;11.780;2022-07-29T06:06:33;102065.91;;;20.40;100.00
57827;BME280;43656;57.746;11.780;2022-07-29T06:08:59;102050.28;;;20.29;100.00
57827;BME280;43656;57.746;11.780;2022-07-29T06:11:25;102065.97;;;20.76;100.00
57827;BME280;43656;57.746;11.780;2022-07-29T06:13:51;102066.94;;;20.81;99.62
57827;BME280;43656;57.746;11.780;2022-07-29T06:16:16;102068.97;;;21.21;99.17
57827;BME280;43656;57.746;11.780;2022-07-29T06:18:42;102075.50;;;21.44;97.55
57827;BME280;43656;57.746;11.780;2022-07-29T06:21:08;102081.22;;;21.54;97.82
57827;BME280;43656;57.746;11.780;2022-07-29T06:23:38;102067.28;;;21.32;98.53
57827;BME280;43656;57.746;11.780;2022-07-29T06:26:04;102079.91;;;21.56;97.94
57827;BME280;43656;57.746;11.780;2022-07-29T06:28:31;102077.09;;;21.80;96.98
57827;BME280;43656;57.746;11.780;2022-07-29T06:30:56;102078.91;;;22.03;95.02
57827;BME280;43656;57.746;11.780;2022-07-29T06:33:22;102067.06;;;22.14;93.67
57827;BME280;43656;57.746;11.780;2022-07-29T06:35:47;102083.50;;;22.26;93.51
57827;BME280;43656;57.746;11.780;2022-07-29T06:38:14;102072.59;;;22.02;93.07
57827;BME280;43656;57.746;11.780;2022-07-29T06:40:43;102064.06;;;21.87;92.95
57827;BME280;43656;57.746;11.780;2022-07-29T06:43:32;102073.78;;;22.07;92.15
57827;BME280;43656;57.746;11.780;2022-07-29T06:46:04;102073.84;;;22.23;91.51
57827;BME280;43656;57.746;11.780;2022-07-29T06:48:30;102070.84;;;22.25;90.79
57827;BME280;43656;57.746;11.780;2022-07-29T06:50:55;102081.41;;;22.33;89.88
57827;BME280;43656;57.746;11.780;2022-07-29T06:53:21;102083.34;;;22.49;88.02
57827;BME280;43656;57.746;11.780;2022-07-29T06:55:46;102084.50;;;22.54;87.47
57827;BME280;43656;57.746;11.780;2022-07-29T06:58:12;102069.38;;;22.51;86.68
57827;BME280;43656;57.746;11.780;2022-07-29T07:00:40;102079.63;;;22.72;85.47
57827;BME280;43656;57.746;11.780;2022-07-29T07:03:05;102086.69;;;22.85;84.49
57827;BME280;43656;57.746;11.780;2022-07-29T07:05:30;102089.88;;;22.94;82.72
57827;BME280;43656;57.746;11.780;2022-07-29T07:07:56;102083.56;;;22.93;83.23
57827;BME280;43656;57.746;11.780;2022-07-29T07:10:21;102054.09;;;22.72;82.54
57827;BME280;43656;57.746;11.780;2022-07-29T07:12:46;102081.22;;;22.85;83.93
57827;BME280;43656;57.746;11.780;2022-07-29T07:15:12;102086.75;;;22.90;82.89
57827;BME280;43656;57.746;11.780;2022-07-29T07:17:37;102090.19;;;22.97;82.51
57827;BME280;43656;57.746;11.780;2022-07-29T07:20:04;102082.63;;;23.05;81.07
57827;BME280;43656;57.746;11.780;2022-07-29T07:22:30;102086.53;;;22.92;80.52
57827;BME280;43656;57.746;11.780;2022-07-29T07:24:55;102086.53;;;22.75;80.74
57827;BME280;43656;57.746;11.780;2022-07-29T07:27:21;102086.53;;;22.75;81.07
57827;BME280;43656;57.746;11.780;2022-07-29T07:29:46;102088.84;;;22.83;80.52
57827;BME280;43656;57.746;11.780;2022-07-29T07:32:11;102067.56;;;22.73;78.74
57827;BME280;43656;57.746;11.780;2022-07-29T07:34:38;102089.38;;;22.97;78.89
57827;BME280;43656;57.746;11.780;2022-07-29T07:37:03;102097.88;;;22.95;79.36
57827;BME280;43656;57.746;11.780;2022-07-29T07:39:29;102086.78;;;22.73;80.27
57827;BME280;43656;57.746;11.780;2022-07-29T07:41:55;102062.91;;;22.74;80.36
57827;BME280;43656;57.746;11.780;2022-07-29T07:44:21;102089.03;;;22.93;79.68
57827;BME280;43656;57.746;11.780;2022-07-29T07:46:46;102090.34;;;23.08;79.24
57827;BME280;43656;57.746;11.780;2022-07-29T07:49:12;102095.34;;;23.11;77.64
57827;BME280;43656;57.746;11.780;2022-07-29T07:51:38;102080.56;;;22.95;78.12
57827;BME280;43656;57.746;11.780;2022-07-29T07:54:04;102080.38;;;22.85;77.53
57827;BME280;43656;57.746;11.780;2022-07-29T07:56:29;102088.53;;;22.96;76.60
57827;BME280;43656;57.746;11.780;2022-07-29T07:58:54;102095.00;;;22.90;74.66
57827;BME280;43656;57.746;11.780;2022-07-29T08:01:20;102102.66;;;22.88;74.90
57827;BME280;43656;57.746;11.780;2022-07-29T08:03:48;102091.34;;;22.85;77.44
57827;BME280;43656;57.746;11.780;2022-07-29T08:06:14;102082.28;;;22.67;79.84
